Time;durP1;ratioP1;P1;durP2;ratioP2;P2;SDS_P1;SDS_P2;PMS_P1;PMS_P2;Temp;Humidity;BMP_temperature;BMP_pressure;BME280_temperature;BME280_humidity;BME280_pressure;Samples;Min_cycle;Max_cycle;Signal;HPM_P1;HPM_P2
2023/01/15 00:00:45;;;;;;;2.90;1.13;;;10.00;97.30;;;;;;5016370;28;20412;-91
2023/01/15 00:03:11;;;;;;;1.10;1.00;;;10.00;97.30;;;;;;5032949;28;20205;-90
2023/01/15 00:05:36;;;;;;;1.67;1.00;;;10.00;97.30;;;;;;5031686;28;20177;-87
2023/01/15 00:08:02;;;;;;;0.90;0.80;;;10.00;97.30;;;;;;5016163;28;20194;-90
2023/01/15 00:10:27;;;;;;;1.37;1.27;;;10.00;97.30;;;;;;5015552;28;20161;-88
2023/01/15 00:12:53;;;;;;;0.90;0.80;;;9.90;97.30;;;;;;5016434;28;20220;-91
2023/01/15 00:15:18;;;;;;;0.80;0.70;;;9.90;97.30;;;;;;5017906;28;20193;-90
2023/01/15 00:17:44;;;;;;;0.90;0.80;;;9.90;97.30;;;;;;5016839;28;20196;-89
2023/01/15 00:20:10;;;;;;;1.00;0.90;;;9.90;97.30;;;;;;5033540;28;20177;-89
2023/01/15 00:22:36;;;;;;;0.90;0.80;;;9.80;97.30;;;;;;5016587;28;20252;-91
2023/01/15 00:27:46;;;;;;;0.90;0.80;;;9.80;97.30;;;;;;5032464;28;20232;-89
2023/01/15 00:30:13;;;;;;;2.73;1.23;;;9.80;97.30;;;;;;5015286;28;20420;-90
2023/01/15 00:32:43;;;;;;;1.70;1.57;;;9.80;97.30;;;;;;5033004;28;20193;-89
2023/01/15 00:35:18;;;;;;;0.90;0.80;;;9.80;97.30;;;;;;5016421;28;20412;-91
2023/01/15 00:37:43;;;;;;;1.00;0.90;;;9.80;97.30;;;;;;5016154;28;20455;-90
2023/01/15 00:40:10;;;;;;;1.10;1.00;;;9.80;97.30;;;;;;5033408;28;20435;-86
2023/01/15 00:42:36;;;;;;;0.90;0.80;;;9.80;97.30;;;;;;5034479;28;20185;-89
2023/01/15 00:45:08;;;;;;;0.90;0.80;;;9.80;97.30;;;;;;5032523;28;20903;-87
2023/01/15 00:47:38;;;;;;;0.90;0.80;;;9.80;97.30;;;;;;5032701;28;20216;-87
2023/01/15 00:50:05;;;;;;;1.00;0.93;;;9.70;97.30;;;;;;5015719;28;20442;-86
2023/01/15 00:52:31;;;;;;;0.90;0.80;;;9.70;97.30;;;;;;5032847;28;20463;-85
2023/01/15 00:54:57;;;;;;;1.03;0.93;;;9.70;97.30;;;;;;5032337;28;20400;-84
2023/01/15 00:57:22;;;;;;;1.00;0.90;;;9.70;97.30;;;;;;5032171;28;20243;-90
2023/01/15 00:59:48;;;;;;;1.00;0.90;;;9.70;97.30;;;;;;5031171;28;20191;-84
2023/01/15 01:02:13;;;;;;;0.90;0.80;;;9.70;97.30;;;;;;5030003;28;20181;-90
2023/01/15 01:04:38;;;;;;;0.90;0.80;;;9.70;97.30;;;;;;5017846;28;20189;-88
2023/01/15 01:07:04;;;;;;;0.90;0.80;;;9.70;97.30;;;;;;5016687;28;20209;-87
2023/01/15 01:09:29;;;;;;;2.23;2.03;;;9.70;97.30;;;;;;5032983;28;20176;-89
2023/01/15 01:11:55;;;;;;;1.00;0.90;;;9.70;97.30;;;;;;5015717;28;20221;-88
2023/01/15 01:14:20;;;;;;;0.90;0.80;;;9.80;97.30;;;;;;5033036;28;20228;-90
2023/01/15 01:16:46;;;;;;;0.90;0.80;;;9.80;97.30;;;;;;5017756;28;20189;-90
2023/01/15 01:19:15;;;;;;;1.00;0.90;;;9.90;97.30;;;;;;5034716;28;20192;-86
2023/01/15 01:21:41;;;;;;;1.10;1.00;;;9.90;97.30;;;;;;5016765;28;20176;-88
2023/01/15 01:24:09;;;;;;;0.90;0.80;;;9.90;97.30;;;;;;5016979;28;20439;-86
2023/01/15 01:26:34;;;;;;;1.07;0.97;;;10.00;97.30;;;;;;5015908;28;20420;-91
2023/01/15 01:29:00;;;;;;;0.90;0.80;;;10.00;97.30;;;;;;5015077;28;20435;-87
2023/01/15 01:31:26;;;;;;;0.90;0.80;;;10.00;97.30;;;;;;5015418;28;20231;-88
2023/01/15 01:33:54;;;;;;;0.90;0.90;;;10.10;97.30;;;;;;5015065;28;20228;-87
2023/01/15 01:36:25;;;;;;;1.30;1.20;;;10.10;97.30;;;;;;5014989;28;20188;-86
2023/01/15 01:38:50;;;;;;;0.80;0.70;;;10.20;97.30;;;;;;5016261;28;20419;-87
2023/01/15 01:41:17;;;;;;;1.07;0.97;;;10.20;97.30;;;;;;5016045;28;20428;-85
2023/01/15 01:44:02;;;;;;;1.10;1.00;;;10.20;97.30;;;;;;5012391;28;20192;-90
2023/01/15 01:46:30;;;;;;;1.00;0.90;;;10.30;97.30;;;;;;5012987;28;20420;-86
2023/01/15 01:49:11;;;;;;;0.97;0.87;;;10.30;97.30;;;;;;5013239;28;20409;-88
2023/01/15 01:51:51;;;;;;;1.00;0.90;;;10.30;97.30;;;;;;5012749;28;20440;-86
2023/01/15 01:54:20;;;;;;;1.00;0.90;;;10.30;97.30;;;;;;5012955;28;20471;-89
2023/01/15 01:56:48;;;;;;;0.90;0.80;;;10.30;97.30;;;;;;5011374;28;20480;-85
2023/01/15 01:59:15;;;;;;;1.00;0.90;;;10.40;97.30;;;;;;5012250;28;20435;-87
2023/01/15 02:01:40;;;;;;;1.10;1.00;;;10.30;97.30;;;;;;5010851;28;20455;-86
2023/01/15 02:04:08;;;;;;;0.90;0.80;;;10.40;97.30;;;;;;5014782;28;20420;-87
2023/01/15 02:06:34;;;;;;;1.00;0.90;;;10.40;97.30;;;;;;5017723;28;20177;-88
2023/01/15 02:09:00;;;;;;;0.90;0.80;;;10.40;97.30;;;;;;5033171;28;20471;-89
2023/01/15 02:11:27;;;;;;;1.00;0.90;;;10.40;97.30;;;;;;5018484;28;20434;-87
2023/01/15 02:13:54;;;;;;;0.90;0.80;;;10.40;97.30;;;;;;5018585;28;20207;-88
2023/01/15 02:16:24;;;;;;;0.90;0.80;;;10.40;97.30;;;;;;5018315;28;20447;-88
2023/01/15 02:19:05;;;;;;;1.00;0.90;;;10.40;97.30;;;;;;5019100;28;21014;-86
2023/01/15 02:21:57;;;;;;;1.00;0.90;;;10.40;97.30;;;;;;5018629;28;20423;-87
2023/01/15 02:24:34;;;;;;;0.90;0.80;;;10.50;97.30;;;;;;5018578;28;20430;-85
2023/01/15 02:27:09;;;;;;;1.20;1.10;;;10.50;97.30;;;;;;5035978;28;20439;-85
2023/01/15 02:29:54;;;;;;;1.13;1.03;;;10.50;97.30;;;;;;5015544;28;20464;-89
2023/01/15 02:32:30;;;;;;;0.93;0.83;;;10.60;97.30;;;;;;4998143;28;20421;-86
2023/01/15 02:35:01;;;;;;;1.00;0.90;;;10.60;97.30;;;;;;5005754;28;20479;-85
2023/01/15 02:37:31;;;;;;;0.90;0.80;;;10.60;97.30;;;;;;5017964;28;20962;-87
2023/01/15 02:39:59;;;;;;;1.00;0.90;;;10.60;97.30;;;;;;5018321;28;20464;-88
2023/01/15 02:42:27;;;;;;;0.90;0.80;;;10.60;97.30;;;;;;5019885;28;20439;-88
2023/01/15 02:44:55;;;;;;;0.90;0.80;;;10.60;97.30;;;;;;5018264;28;20444;-85
2023/01/15 02:47:26;;;;;;;4.60;1.00;;;10.60;97.30;;;;;;5018017;28;20464;-88
2023/01/15 02:49:55;;;;;;;1.10;1.00;;;10.60;97.30;;;;;;5017701;28;20467;-88
2023/01/15 02:52:50;;;;;;;1.00;0.90;;;10.60;97.30;;;;;;5017475;28;20444;-88
2023/01/15 02:55:26;;;;;;;1.10;1.00;;;10.60;97.30;;;;;;5033779;28;20416;-87
2023/01/15 02:57:55;;;;;;;0.90;0.80;;;10.70;97.30;;;;;;5016946;28;20515;-87
2023/01/15 03:00:23;;;;;;;0.90;0.80;;;10.60;97.30;;;;;;5017460;28;20422;-88
2023/01/15 03:03:05;;;;;;;0.80;0.70;;;10.50;97.30;;;;;;5018295;28;20424;-88
2023/01/15 03:05:38;;;;;;;1.10;1.00;;;10.50;97.30;;;;;;5036923;28;20418;-86
2023/01/15 03:08:06;;;;;;;1.00;0.90;;;10.40;97.30;;;;;;5017002;28;20427;-88
2023/01/15 03:10:46;;;;;;;1.07;0.90;;;10.30;97.30;;;;;;5015440;28;20432;-87
2023/01/15 03:13:19;;;;;;;0.80;0.70;;;10.20;97.30;;;;;;5016028;28;20476;-87
2023/01/15 03:18:58;;;;;;;1.10;1.00;;;10.10;97.30;;;;;;5017531;28;20439;-85
2023/01/15 03:21:37;;;;;;;0.90;0.80;;;10.10;97.30;;;;;;5031213;28;20401;-88
2023/01/15 03:24:05;;;;;;;0.90;0.80;;;10.10;97.30;;;;;;5014081;28;20442;-84
2023/01/15 03:26:31;;;;;;;0.90;0.80;;;10.00;97.30;;;;;;5011678;28;20436;-86
2023/01/15 03:28:57;;;;;;;0.90;0.80;;;10.00;97.30;;;;;;5030083;28;20432;-86
2023/01/15 03:31:22;;;;;;;0.80;0.70;;;10.00;97.30;;;;;;5003811;28;20185;-84
2023/01/15 03:33:48;;;;;;;0.93;0.90;;;10.00;97.30;;;;;;4995907;28;20462;-85
2023/01/15 03:36:13;;;;;;;1.00;0.90;;;10.00;97.30;;;;;;5013954;28;20256;-85
2023/01/15 03:38:40;;;;;;;0.93;0.83;;;10.00;97.30;;;;;;4996322;28;20255;-83
2023/01/15 03:41:08;;;;;;;1.10;1.00;;;10.00;97.30;;;;;;4996804;28;20207;-84
2023/01/15 03:43:39;;;;;;;0.90;0.80;;;10.00;97.30;;;;;;4996418;28;20423;-84
2023/01/15 03:46:11;;;;;;;1.00;0.90;;;10.00;97.30;;;;;;4995910;28;20936;-87
2023/01/15 03:48:52;;;;;;;1.10;1.00;;;10.00;97.30;;;;;;4996438;28;20567;-85
2023/01/15 03:51:29;;;;;;;1.00;0.90;;;10.00;97.30;;;;;;4996094;28;20911;-85
2023/01/15 03:53:57;;;;;;;1.10;1.00;;;10.00;97.30;;;;;;5013372;28;20459;-85
2023/01/15 03:56:34;;;;;;;1.00;0.90;;;10.00;97.30;;;;;;4996043;28;20428;-84
2023/01/15 03:59:11;;;;;;;1.17;1.07;;;10.00;97.30;;;;;;4995946;28;20400;-84
2023/01/15 04:01:40;;;;;;;1.00;0.90;;;10.00;97.30;;;;;;4995213;28;20423;-84
2023/01/15 04:04:06;;;;;;;2.37;2.17;;;10.00;97.30;;;;;;4996110;28;20423;-83
2023/01/15 04:06:34;;;;;;;0.87;0.77;;;10.00;97.30;;;;;;5013360;28;20409;-85
2023/01/15 04:09:03;;;;;;;1.30;1.20;;;10.10;97.30;;;;;;4996037;28;20428;-84
2023/01/15 04:11:29;;;;;;;0.90;0.80;;;10.10;97.30;;;;;;4995785;28;20419;-86
2023/01/15 04:13:54;;;;;;;1.10;1.00;;;10.10;97.30;;;;;;4979849;28;20469;-83
2023/01/15 04:16:25;;;;;;;0.93;0.83;;;10.10;97.30;;;;;;4976111;28;20189;-85
2023/01/15 04:18:51;;;;;;;0.90;0.80;;;10.10;97.30;;;;;;4993503;28;20193;-87
2023/01/15 04:21:17;;;;;;;1.00;0.90;;;10.10;97.30;;;;;;4975893;28;20453;-85
2023/01/15 04:23:43;;;;;;;1.20;1.10;;;10.10;97.30;;;;;;4975728;28;21153;-84
2023/01/15 04:26:08;;;;;;;0.90;0.80;;;10.10;97.30;;;;;;4993707;28;20170;-85
2023/01/15 04:28:34;;;;;;;0.90;0.80;;;10.00;97.30;;;;;;4975552;28;20452;-86
2023/01/15 04:30:59;;;;;;;1.00;0.90;;;9.90;97.30;;;;;;4993599;28;20221;-85
2023/01/15 04:33:25;;;;;;;1.00;0.90;;;9.90;97.30;;;;;;4975900;28;20237;-86
2023/01/15 04:35:51;;;;;;;1.00;0.90;;;9.80;97.30;;;;;;4990700;28;20190;-86
2023/01/15 04:38:19;;;;;;;1.00;0.90;;;9.70;97.30;;;;;;5012872;28;20204;-89
2023/01/15 04:46:13;;;;;;;1.03;0.93;;;9.60;97.30;;;;;;5012962;28;20829;-87
2023/01/15 04:48:39;;;;;;;1.00;0.90;;;9.60;97.30;;;;;;4994848;28;20435;-88
2023/01/15 04:51:06;;;;;;;1.00;0.90;;;9.40;97.30;;;;;;4994489;28;20193;-86
2023/01/15 04:53:32;;;;;;;1.23;1.17;;;9.00;97.30;;;;;;4981275;28;20456;-87
2023/01/15 04:56:05;;;;;;;1.10;1.00;;;8.60;97.30;;;;;;4994572;28;20432;-87
2023/01/15 04:58:31;;;;;;;1.90;1.77;;;8.30;97.30;;;;;;4994523;28;20533;-88
2023/01/15 05:00:59;;;;;;;0.90;0.80;;;8.00;97.30;;;;;;4994960;28;20415;-88
2023/01/15 05:03:25;;;;;;;1.20;1.10;;;7.90;97.30;;;;;;4994569;28;20432;-88
2023/01/15 05:05:51;;;;;;;1.10;1.00;;;7.70;97.30;;;;;;4994387;28;20519;-91
2023/01/15 05:08:16;;;;;;;1.20;1.10;;;7.50;97.30;;;;;;4994220;28;21334;-88
2023/01/15 05:10:42;;;;;;;1.07;0.97;;;7.40;97.30;;;;;;4999505;28;20208;-88
2023/01/15 05:13:07;;;;;;;1.00;0.90;;;7.30;97.30;;;;;;4979426;28;20213;-89
2023/01/15 05:15:33;;;;;;;1.10;1.00;;;7.20;97.30;;;;;;4990783;28;20192;-89
2023/01/15 05:17:58;;;;;;;1.00;0.90;;;7.10;97.30;;;;;;4992129;28;20201;-89
2023/01/15 05:20:24;;;;;;;1.40;1.30;;;6.90;97.30;;;;;;4975061;28;20186;-88
2023/01/15 05:22:50;;;;;;;1.10;1.00;;;6.80;97.30;;;;;;4975303;28;20269;-88
2023/01/15 05:25:15;;;;;;;1.20;1.10;;;6.70;97.30;;;;;;4988392;28;20522;-90
2023/01/15 05:27:41;;;;;;;1.10;1.00;;;6.70;97.30;;;;;;4997945;28;20220;-89
2023/01/15 05:30:08;;;;;;;1.00;0.90;;;6.60;97.30;;;;;;4989400;28;20196;-87
2023/01/15 05:32:33;;;;;;;1.10;1.00;;;6.60;97.30;;;;;;4994143;28;20202;-89
2023/01/15 05:34:59;;;;;;;1.00;0.90;;;6.50;97.30;;;;;;5000174;28;20466;-89
2023/01/15 05:37:24;;;;;;;1.30;1.20;;;6.40;97.30;;;;;;4992735;28;20585;-88
2023/01/15 05:39:50;;;;;;;1.10;1.00;;;6.30;97.30;;;;;;4996227;28;20177;-88
2023/01/15 05:42:15;;;;;;;0.97;0.87;;;6.30;97.30;;;;;;4998524;28;20177;-88
2023/01/15 05:44:41;;;;;;;1.00;0.90;;;6.20;97.30;;;;;;4998805;28;20717;-88
2023/01/15 05:47:08;;;;;;;1.03;0.93;;;6.20;97.30;;;;;;4998439;28;20193;-88
2023/01/15 05:49:34;;;;;;;1.10;1.00;;;6.10;97.30;;;;;;4998153;28;20188;-88
2023/01/15 05:52:00;;;;;;;1.10;1.00;;;6.10;97.30;;;;;;5015762;28;20424;-87
2023/01/15 05:54:29;;;;;;;1.07;0.97;;;6.10;97.30;;;;;;4994774;28;20210;-88
2023/01/15 05:56:55;;;;;;;1.17;1.07;;;6.10;97.30;;;;;;4994429;28;20475;-89
2023/01/15 05:59:23;;;;;;;1.00;0.90;;;6.10;97.30;;;;;;5002658;28;20421;-88
2023/01/15 06:01:59;;;;;;;1.03;0.93;;;6.00;97.30;;;;;;4984851;28;20429;-88
2023/01/15 06:04:25;;;;;;;1.20;1.10;;;6.00;97.30;;;;;;4997648;28;20443;-88
2023/01/15 06:06:52;;;;;;;1.10;1.00;;;6.00;97.30;;;;;;4997753;28;20813;-90
2023/01/15 06:09:19;;;;;;;1.07;0.97;;;6.00;97.30;;;;;;4997587;28;20537;-88
2023/01/15 06:11:45;;;;;;;1.10;1.00;;;5.90;97.30;;;;;;5009093;28;20435;-88
2023/01/15 06:14:12;;;;;;;1.10;1.00;;;5.90;97.30;;;;;;4978226;28;20492;-88
2023/01/15 06:16:38;;;;;;;0.90;0.80;;;5.90;97.30;;;;;;4985465;28;20420;-88
2023/01/15 06:19:05;;;;;;;1.10;1.00;;;5.90;97.30;;;;;;4994536;28;20447;-89
2023/01/15 06:21:32;;;;;;;2.60;1.50;;;5.90;97.30;;;;;;4995476;28;20416;-89
2023/01/15 06:23:57;;;;;;;1.10;1.00;;;6.00;97.30;;;;;;5004019;28;20428;-88
2023/01/15 06:26:23;;;;;;;1.10;1.00;;;6.00;97.30;;;;;;5000795;28;20427;-88
2023/01/15 06:28:49;;;;;;;1.00;0.90;;;6.00;97.30;;;;;;5004073;28;20195;-89
2023/01/15 06:31:18;;;;;;;1.20;1.10;;;6.10;97.30;;;;;;4992815;28;20508;-88
2023/01/15 06:33:43;;;;;;;1.00;0.90;;;6.10;97.30;;;;;;4979298;28;20684;-87
2023/01/15 06:36:20;;;;;;;1.00;0.90;;;6.10;97.30;;;;;;4981067;28;20417;-88
2023/01/15 06:38:47;;;;;;;0.97;0.87;;;6.10;97.30;;;;;;4984958;28;20986;-89
2023/01/15 06:49:35;;;;;;;0.90;0.80;;;6.00;97.30;;;;;;5003028;28;20411;-89
2023/01/15 06:52:02;;;;;;;1.10;1.00;;;6.00;97.30;;;;;;4996357;28;20607;-89
2023/01/15 06:54:28;;;;;;;1.63;1.43;;;5.90;97.30;;;;;;4978268;28;20463;-89
2023/01/15 06:56:53;;;;;;;1.20;1.10;;;5.90;97.30;;;;;;4985982;28;20639;-88
2023/01/15 06:59:19;;;;;;;1.00;0.90;;;5.80;97.30;;;;;;5007077;28;20174;-88
2023/01/15 07:01:45;;;;;;;1.30;1.20;;;5.80;97.30;;;;;;4997775;28;20186;-88
2023/01/15 07:04:11;;;;;;;1.10;1.00;;;5.80;97.30;;;;;;4980445;28;20208;-89
2023/01/15 07:06:37;;;;;;;1.07;0.97;;;5.80;97.30;;;;;;4999695;28;20177;-91
2023/01/15 07:09:02;;;;;;;1.20;1.10;;;5.80;97.30;;;;;;4997490;28;20557;-88
2023/01/15 07:11:29;;;;;;;1.10;1.00;;;5.80;97.30;;;;;;4995499;28;20640;-90
2023/01/15 07:14:04;;;;;;;1.00;0.90;;;5.80;97.30;;;;;;4991528;28;20205;-88
2023/01/15 07:16:31;;;;;;;1.10;1.00;;;5.70;97.30;;;;;;5001114;28;20404;-88
2023/01/15 07:18:57;;;;;;;1.00;0.90;;;5.70;97.30;;;;;;4996656;28;21028;-89
2023/01/15 07:21:23;;;;;;;1.10;1.00;;;5.70;97.30;;;;;;4983364;28;20492;-88
2023/01/15 07:23:49;;;;;;;1.00;0.90;;;5.70;97.30;;;;;;4978788;28;20178;-91
2023/01/15 07:26:14;;;;;;;1.07;0.97;;;5.70;97.30;;;;;;4996776;28;20173;-90
2023/01/15 07:28:40;;;;;;;1.00;0.90;;;5.60;97.30;;;;;;4997165;28;20440;-88
2023/01/15 07:31:06;;;;;;;1.00;0.90;;;5.60;97.30;;;;;;4983343;28;20210;-88
2023/01/15 07:33:31;;;;;;;1.03;0.93;;;5.60;97.30;;;;;;4991490;28;20201;-88
2023/01/15 07:35:57;;;;;;;1.00;0.90;;;5.60;97.30;;;;;;4996518;28;20173;-89
2023/01/15 07:38:23;;;;;;;1.10;1.00;;;5.50;97.30;;;;;;4995802;28;20200;-89
2023/01/15 07:49:44;;;;;;;1.00;0.90;;;5.50;97.30;;;;;;4983722;28;20417;-90
2023/01/15 07:51:30;;;;;;;1.00;0.90;;;5.40;97.30;;;;;;5038388;28;20921;-87
2023/01/15 07:53:56;;;;;;;1.00;0.90;;;5.40;97.30;;;;;;5017832;28;20483;-88
2023/01/15 07:56:21;;;;;;;1.10;1.00;;;5.40;97.30;;;;;;5000211;28;20196;-88
2023/01/15 07:58:49;;;;;;;1.10;1.00;;;5.40;97.30;;;;;;5019780;28;20181;-87
2023/01/15 08:01:14;;;;;;;1.00;0.90;;;5.40;97.30;;;;;;4995446;28;20169;-89
2023/01/15 08:06:05;;;;;;;1.13;1.03;;;5.40;97.30;;;;;;5030700;23;20266;-87
2023/01/15 08:08:31;;;;;;;3.00;1.20;;;5.40;97.30;;;;;;5001026;28;20226;-89
2023/01/15 08:16:34;;;;;;;1.53;1.43;;;5.40;97.30;;;;;;5011486;28;20471;-90
2023/01/15 08:19:00;;;;;;;1.10;1.00;;;5.40;97.30;;;;;;4995463;28;20940;-88
2023/01/15 08:21:25;;;;;;;1.00;0.90;;;5.50;97.30;;;;;;4985805;28;20430;-88
2023/01/15 08:23:51;;;;;;;0.90;0.80;;;5.50;97.30;;;;;;4988198;28;20159;-90
2023/01/15 08:26:16;;;;;;;1.17;1.07;;;5.50;97.30;;;;;;4990168;28;20655;-87
2023/01/15 08:28:42;;;;;;;1.00;0.90;;;5.60;97.30;;;;;;4979000;28;20199;-87
2023/01/15 08:31:07;;;;;;;1.20;1.10;;;5.60;97.30;;;;;;4984953;28;20190;-87
2023/01/15 08:33:33;;;;;;;1.00;0.90;;;5.60;97.30;;;;;;4982626;28;20208;-87
2023/01/15 08:35:59;;;;;;;1.20;1.10;;;5.60;97.30;;;;;;4983127;28;20281;-87
2023/01/15 08:38:24;;;;;;;1.10;1.00;;;5.60;97.30;;;;;;4983546;28;20174;-88
2023/01/15 08:40:59;;;;;;;0.80;0.70;;;5.60;97.30;;;;;;4987568;28;20660;-86
2023/01/15 08:43:26;;;;;;;1.20;1.10;;;5.60;97.30;;;;;;4983790;28;20160;-87
2023/01/15 08:45:56;;;;;;;1.03;1.00;;;5.60;97.30;;;;;;4988082;28;20441;-87
2023/01/15 08:48:22;;;;;;;1.00;0.90;;;5.60;97.30;;;;;;4984247;28;20412;-87
2023/01/15 08:50:49;;;;;;;1.00;0.90;;;5.60;97.30;;;;;;4984719;28;20433;-88
2023/01/15 08:53:15;;;;;;;1.00;0.90;;;5.60;97.30;;;;;;4988817;28;20672;-89
2023/01/15 08:55:40;;;;;;;0.90;0.80;;;5.60;97.30;;;;;;4979887;28;20647;-87
2023/01/15 08:58:06;;;;;;;1.00;0.90;;;5.60;97.30;;;;;;4984536;28;20441;-87
2023/01/15 09:00:32;;;;;;;1.00;0.90;;;5.60;97.30;;;;;;4982764;28;20181;-88
2023/01/15 09:02:57;;;;;;;1.00;0.90;;;5.60;97.30;;;;;;4987373;28;20177;-88
2023/01/15 09:05:22;;;;;;;0.87;0.77;;;5.60;97.30;;;;;;4983163;28;20387;-87
2023/01/15 09:07:48;;;;;;;1.33;1.23;;;5.60;97.30;;;;;;4991354;28;20663;-88
2023/01/15 09:10:14;;;;;;;0.90;0.80;;;5.70;97.30;;;;;;4993281;28;20204;-88
2023/01/15 09:12:39;;;;;;;2.40;2.20;;;5.70;97.30;;;;;;4993199;28;20613;-85
2023/01/15 09:15:05;;;;;;;1.10;1.00;;;5.70;97.30;;;;;;5002229;28;20197;-84
2023/01/15 09:17:32;;;;;;;0.97;0.87;;;5.70;97.30;;;;;;4991898;28;20178;-87
2023/01/15 09:19:57;;;;;;;1.10;1.00;;;5.80;97.30;;;;;;4995905;28;20197;-89
2023/01/15 09:22:26;;;;;;;1.00;0.90;;;5.80;97.30;;;;;;5006753;28;20417;-89
2023/01/15 09:24:52;;;;;;;1.00;0.90;;;5.80;97.30;;;;;;4980787;28;20457;-87
2023/01/15 09:27:17;;;;;;;1.67;1.17;;;5.80;97.30;;;;;;5004191;28;20432;-88
2023/01/15 09:29:43;;;;;;;0.90;0.80;;;5.90;97.30;;;;;;4982806;28;20209;-88
2023/01/15 09:32:09;;;;;;;1.17;1.07;;;5.90;97.30;;;;;;4979623;28;20217;-86
2023/01/15 09:34:34;;;;;;;1.10;1.00;;;6.00;97.30;;;;;;4982209;28;20229;-87
2023/01/15 09:37:00;;;;;;;1.00;0.90;;;6.00;97.30;;;;;;4980513;28;20491;-87
2023/01/15 09:39:25;;;;;;;1.00;0.90;;;6.10;97.30;;;;;;4994303;28;20259;-88
2023/01/15 09:42:21;;;;;;;0.90;0.80;;;6.10;97.30;;;;;;4991459;28;20387;-87
2023/01/15 09:45:17;;;;;;;1.00;0.90;;;6.10;97.30;;;;;;4984170;28;20209;-89
2023/01/15 09:48:11;;;;;;;1.10;1.00;;;6.10;97.30;;;;;;4990037;28;20424;-88
2023/01/15 09:50:58;;;;;;;1.00;0.90;;;6.20;97.30;;;;;;4991171;28;20511;-87
2023/01/15 09:54:09;;;;;;;1.00;0.90;;;6.20;97.30;;;;;;4987736;28;20463;-86
2023/01/15 09:56:37;;;;;;;1.20;1.10;;;6.20;97.30;;;;;;4968453;28;20542;-89
2023/01/15 09:59:26;;;;;;;1.00;0.90;;;6.30;97.30;;;;;;4991561;28;20444;-86
2023/01/15 10:01:52;;;;;;;1.03;0.97;;;6.30;97.30;;;;;;5008023;28;20441;-87
2023/01/15 10:04:47;;;;;;;0.97;0.87;;;6.40;97.30;;;;;;4992628;28;20525;-86
2023/01/15 10:07:31;;;;;;;1.00;0.90;;;6.50;97.30;;;;;;4985072;28;20519;-87
2023/01/15 10:10:05;;;;;;;0.90;0.80;;;6.50;97.30;;;;;;5004507;28;21212;-88
2023/01/15 10:12:35;;;;;;;0.90;0.80;;;6.50;97.30;;;;;;4981889;28;20424;-87
2023/01/15 10:15:12;;;;;;;0.90;0.80;;;6.60;97.30;;;;;;4985630;28;20467;-88
2023/01/15 10:17:43;;;;;;;1.03;0.93;;;6.60;97.30;;;;;;5001156;28;20443;-86
2023/01/15 10:20:37;;;;;;;1.10;1.00;;;6.60;97.30;;;;;;4990689;28;20454;-88
2023/01/15 10:23:02;;;;;;;0.90;0.80;;;6.70;97.30;;;;;;4986254;28;20434;-88
2023/01/15 10:25:37;;;;;;;1.00;0.90;;;6.70;97.30;;;;;;4990073;28;20432;-87
2023/01/15 10:28:14;;;;;;;1.20;1.10;;;6.70;97.30;;;;;;4983517;28;20231;-89
2023/01/15 10:30:45;;;;;;;1.10;1.00;;;6.70;97.30;;;;;;4995704;28;20838;-86
2023/01/15 10:33:39;;;;;;;1.00;0.90;;;6.70;97.30;;;;;;4996672;28;20468;-87
2023/01/15 10:36:18;;;;;;;1.03;0.93;;;6.70;97.30;;;;;;4979764;28;20452;-87
2023/01/15 10:38:57;;;;;;;1.07;0.97;;;6.70;97.30;;;;;;4977209;28;20920;-89
2023/01/15 10:41:47;;;;;;;1.00;0.90;;;6.70;97.30;;;;;;4977063;28;20417;-87
2023/01/15 10:44:41;;;;;;;1.20;1.10;;;6.70;97.30;;;;;;4980760;28;20449;-87
2023/01/15 10:47:12;;;;;;;1.00;0.90;;;6.70;97.30;;;;;;4995712;28;20401;-89
2023/01/15 10:49:40;;;;;;;1.00;0.90;;;6.80;97.30;;;;;;4984131;28;20440;-88
2023/01/15 10:52:16;;;;;;;1.07;0.97;;;6.80;97.30;;;;;;4997076;28;20420;-87
2023/01/15 10:54:47;;;;;;;1.00;0.90;;;6.80;97.30;;;;;;5032795;28;20481;-90
2023/01/15 10:57:15;;;;;;;1.40;1.30;;;6.80;97.30;;;;;;5015441;28;20426;-88
2023/01/15 10:59:58;;;;;;;1.10;1.00;;;6.90;97.30;;;;;;5014599;28;20841;-91
2023/01/15 11:02:47;;;;;;;1.43;1.27;;;6.90;97.30;;;;;;5014422;28;20483;-88
2023/01/15 11:05:18;;;;;;;1.10;1.00;;;7.00;97.30;;;;;;5003608;28;20483;-87
2023/01/15 11:07:50;;;;;;;1.00;0.90;;;7.10;97.30;;;;;;5000818;28;20432;-88
2023/01/15 11:10:20;;;;;;;1.20;1.10;;;7.20;97.30;;;;;;4975800;28;20437;-86
2023/01/15 11:21:21;;;;;;;1.00;0.90;;;7.50;97.30;;;;;;5007807;28;20842;-86
2023/01/15 11:23:47;;;;;;;46.67;1.83;;;7.50;97.30;;;;;;5011541;28;20420;-87
2023/01/15 11:26:25;;;;;;;1.00;0.90;;;7.60;97.30;;;;;;5011421;28;20412;-87
2023/01/15 11:28:52;;;;;;;1.00;0.90;;;7.40;97.30;;;;;;5014249;28;20474;-88
2023/01/15 11:31:18;;;;;;;2.97;1.40;;;7.40;97.30;;;;;;5010189;28;20424;-87
2023/01/15 11:34:02;;;;;;;1.63;1.50;;;7.30;97.30;;;;;;4977337;28;20559;-87
2023/01/15 11:36:29;;;;;;;1.30;1.20;;;7.30;97.30;;;;;;4975423;28;20422;-87
2023/01/15 11:38:55;;;;;;;3.23;1.37;;;7.30;97.30;;;;;;4957559;28;20422;-87
2023/01/15 11:52:51;;;;;;;0.90;0.80;;;7.30;97.30;;;;;;5014579;28;20956;-88
2023/01/15 11:55:20;;;;;;;0.93;0.83;;;7.30;97.30;;;;;;5014721;28;20438;-88
2023/01/15 11:57:48;;;;;;;1.00;0.90;;;7.30;97.30;;;;;;5014115;28;20411;-87
2023/01/15 12:00:25;;;;;;;1.30;1.10;;;7.30;97.30;;;;;;4996662;28;20416;-89
2023/01/15 12:02:59;;;;;;;1.33;1.23;;;7.30;97.30;;;;;;4997289;28;20849;-87
2023/01/15 12:05:28;;;;;;;0.90;0.80;;;7.20;97.30;;;;;;5012986;28;20536;-88
2023/01/15 12:07:57;;;;;;;1.00;0.90;;;7.20;97.30;;;;;;4996316;28;20681;-87
2023/01/15 12:13:40;;;;;;;1.03;0.93;;;7.20;96.80;;;;;;5009961;28;20487;-88
2023/01/15 12:16:32;;;;;;;1.10;1.00;;;7.20;97.20;;;;;;5014394;28;20412;-86
2023/01/15 12:19:33;;;;;;;1.00;0.90;;;7.20;97.00;;;;;;4996208;28;20458;-88
2023/01/15 12:22:33;;;;;;;1.00;0.90;;;7.20;97.30;;;;;;4976698;28;20423;-87
2023/01/15 12:25:01;;;;;;;1.10;1.00;;;7.20;96.60;;;;;;4976433;28;20465;-85
2023/01/15 12:27:54;;;;;;;0.90;0.80;;;7.10;96.20;;;;;;4975404;28;20418;-87
2023/01/15 12:30:37;;;;;;;1.00;0.90;;;7.10;96.80;;;;;;4976223;28;20425;-86
2023/01/15 12:33:25;;;;;;;1.00;0.90;;;7.10;96.30;;;;;;5001446;28;20900;-87
2023/01/15 12:35:57;;;;;;;1.00;0.90;;;7.10;96.40;;;;;;5011709;28;20985;-87
2023/01/15 12:38:51;;;;;;;0.90;0.80;;;7.10;96.00;;;;;;4995474;28;20420;-87
2023/01/15 12:47:33;;;;;;;1.00;0.90;;;7.10;96.30;;;;;;5012851;28;20984;-88
2023/01/15 12:50:24;;;;;;;1.00;0.90;;;7.10;96.50;;;;;;5013018;28;20428;-86
2023/01/15 12:52:59;;;;;;;1.00;0.90;;;7.00;96.30;;;;;;4984741;28;20495;-85
2023/01/15 12:55:30;;;;;;;1.10;1.00;;;7.00;96.90;;;;;;4995008;28;20467;-86
2023/01/15 12:57:59;;;;;;;0.97;0.90;;;7.00;96.70;;;;;;4995861;28;20435;-87
2023/01/15 13:00:35;;;;;;;1.10;1.00;;;6.90;96.70;;;;;;4996004;28;20412;-86
2023/01/15 13:03:25;;;;;;;1.00;0.90;;;6.90;96.50;;;;;;4995802;28;20549;-87
2023/01/15 13:05:54;;;;;;;1.00;0.90;;;6.90;96.60;;;;;;4994321;28;20819;-87
2023/01/15 13:08:26;;;;;;;1.33;1.23;;;6.90;96.00;;;;;;4994821;28;20416;-86
2023/01/15 13:10:52;;;;;;;0.90;0.80;;;6.90;96.20;;;;;;4995410;28;20420;-87
2023/01/15 13:13:29;;;;;;;1.00;0.90;;;6.90;96.50;;;;;;4995891;28;20487;-88
2023/01/15 13:16:07;;;;;;;2.60;1.67;;;6.90;96.50;;;;;;4996891;28;20435;-86
2023/01/15 13:19:03;;;;;;;1.00;0.90;;;6.90;96.70;;;;;;4999968;28;20423;-87
2023/01/15 13:21:32;;;;;;;1.00;0.90;;;6.90;96.80;;;;;;4999634;28;20782;-87
2023/01/15 13:24:23;;;;;;;1.00;0.90;;;6.90;96.40;;;;;;5014108;28;20435;-88
2023/01/15 13:26:59;;;;;;;1.10;1.00;;;6.80;96.90;;;;;;4997446;28;20423;-90
2023/01/15 13:29:33;;;;;;;3.43;1.00;;;6.80;96.90;;;;;;5013564;28;20408;-86
2023/01/15 13:32:08;;;;;;;1.10;1.00;;;6.80;96.80;;;;;;4995416;28;20452;-88
2023/01/15 13:34:59;;;;;;;1.20;1.10;;;6.80;96.90;;;;;;4979931;28;20840;-87
2023/01/15 13:37:28;;;;;;;1.27;1.17;;;6.80;96.80;;;;;;4995575;28;20794;-88
2023/01/15 13:40:09;;;;;;;1.17;1.07;;;6.80;97.00;;;;;;4992152;28;20927;-87
2023/01/15 13:42:36;;;;;;;1.10;1.00;;;6.80;97.10;;;;;;4975609;28;20939;-86
2023/01/15 13:45:12;;;;;;;1.53;1.20;;;6.80;97.10;;;;;;5003937;23;20496;-88
2023/01/15 13:47:41;;;;;;;1.27;1.00;;;6.80;97.00;;;;;;4975726;28;20429;-87
2023/01/15 13:50:16;;;;;;;0.93;0.83;;;6.70;97.20;;;;;;4975592;28;20410;-88
2023/01/15 13:52:42;;;;;;;1.00;0.90;;;6.70;97.30;;;;;;4975222;28;20417;-86
2023/01/15 13:55:18;;;;;;;1.00;0.90;;;6.80;97.20;;;;;;4966315;28;20484;-85
2023/01/15 13:57:43;;;;;;;1.10;1.00;;;6.80;97.20;;;;;;4956342;28;20916;-87
2023/01/15 14:00:26;;;;;;;0.90;0.80;;;6.80;97.30;;;;;;4975278;28;20420;-88
2023/01/15 14:03:01;;;;;;;1.03;0.93;;;6.80;97.00;;;;;;4960320;28;20744;-88
2023/01/15 14:05:33;;;;;;;1.00;0.90;;;6.80;97.30;;;;;;4959689;28;20576;-86
2023/01/15 14:08:00;;;;;;;1.10;1.00;;;6.80;97.30;;;;;;4977678;28;20501;-90
2023/01/15 14:10:34;;;;;;;1.30;1.20;;;6.70;97.30;;;;;;4959433;28;20956;-90
2023/01/15 14:13:32;;;;;;;2.77;1.10;;;6.70;97.30;;;;;;4959324;28;20464;-87
2023/01/15 14:16:04;;;;;;;1.23;1.13;;;6.70;97.30;;;;;;4958280;28;20438;-87
2023/01/15 14:19:01;;;;;;;1.00;0.90;;;6.70;97.30;;;;;;4959995;28;20778;-89